sensor_id;sensor_type;location;lat;lon;timestamp;temperature;humidity
13458;DHT22;6801;53.018;11.560;2022-10-16T00:00:49;16.00;79.70
13458;DHT22;6801;53.018;11.560;2022-10-16T00:03:16;16.00;79.50
13458;DHT22;6801;53.018;11.560;2022-10-16T00:05:44;16.00;79.50
13458;DHT22;6801;53.018;11.560;2022-10-16T00:08:12;16.00;79.50
13458;DHT22;6801;53.018;11.560;2022-10-16T00:10:39;16.00;79.40
13458;DHT22;6801;53.018;11.560;2022-10-16T00:13:07;16.00;79.30
13458;DHT22;6801;53.018;11.560;2022-10-16T00:15:34;16.00;79.30
13458;DHT22;6801;53.018;11.560;2022-10-16T00:18:03;16.00;79.30
13458;DHT22;6801;53.018;11.560;2022-10-16T00:20:33;16.00;79.30
13458;DHT22;6801;53.018;11.560;2022-10-16T00:23:01;16.00;79.30
13458;DHT22;6801;53.018;11.560;2022-10-16T00:25:28;16.00;79.30
13458;DHT22;6801;53.018;11.560;2022-10-16T00:27:58;15.90;79.30
13458;DHT22;6801;53.018;11.560;2022-10-16T00:30:25;15.90;79.40
13458;DHT22;6801;53.018;11.560;2022-10-16T00:32:53;15.90;79.40
13458;DHT22;6801;53.018;11.560;2022-10-16T00:35:20;15.90;79.30
13458;DHT22;6801;53.018;11.560;2022-10-16T00:37:47;15.90;79.30
13458;DHT22;6801;53.018;11.560;2022-10-16T00:40:16;15.90;79.30
13458;DHT22;6801;53.018;11.560;2022-10-16T00:42:43;15.80;79.20
13458;DHT22;6801;53.018;11.560;2022-10-16T00:45:10;15.80;79.20
13458;DHT22;6801;53.018;11.560;2022-10-16T00:47:40;15.80;79.10
13458;DHT22;6801;53.018;11.560;2022-10-16T00:50:09;15.70;79.10
13458;DHT22;6801;53.018;11.560;2022-10-16T00:52:40;15.70;79.00
13458;DHT22;6801;53.018;11.560;2022-10-16T00:55:09;15.70;79.00
13458;DHT22;6801;53.018;11.560;2022-10-16T00:57:38;15.70;79.00
13458;DHT22;6801;53.018;11.560;2022-10-16T01:00:09;15.60;79.00
13458;DHT22;6801;53.018;11.560;2022-10-16T01:02:36;15.70;78.90
13458;DHT22;6801;53.018;11.560;2022-10-16T01:05:04;15.70;78.80
13458;DHT22;6801;53.018;11.560;2022-10-16T01:07:39;15.60;78.80
13458;DHT22;6801;53.018;11.560;2022-10-16T01:10:14;15.60;78.80
13458;DHT22;6801;53.018;11.560;2022-10-16T01:12:47;15.60;78.80
13458;DHT22;6801;53.018;11.560;2022-10-16T01:15:21;15.50;78.70
13458;DHT22;6801;53.018;11.560;2022-10-16T01:17:56;15.50;78.70
13458;DHT22;6801;53.018;11.560;2022-10-16T01:20:29;15.50;78.70
13458;DHT22;6801;53.018;11.560;2022-10-16T01:23:04;15.40;78.70
13458;DHT22;6801;53.018;11.560;2022-10-16T01:25:42;15.40;78.70
13458;DHT22;6801;53.018;11.560;2022-10-16T01:28:18;15.40;78.70
13458;DHT22;6801;53.018;11.560;2022-10-16T01:30:46;15.40;78.70
13458;DHT22;6801;53.018;11.560;2022-10-16T01:33:18;15.40;78.70
13458;DHT22;6801;53.018;11.560;2022-10-16T01:35:51;15.40;78.70
13458;DHT22;6801;53.018;11.560;2022-10-16T01:38:22;15.30;78.70
13458;DHT22;6801;53.018;11.560;2022-10-16T01:40:52;15.30;78.60
13458;DHT22;6801;53.018;11.560;2022-10-16T01:43:26;15.30;78.60
13458;DHT22;6801;53.018;11.560;2022-10-16T01:45:55;15.30;78.60
13458;DHT22;6801;53.018;11.560;2022-10-16T01:48:23;15.30;78.60
13458;DHT22;6801;53.018;11.560;2022-10-16T01:50:55;15.30;78.50
13458;DHT22;6801;53.018;11.560;2022-10-16T01:53:24;15.30;78.50
13458;DHT22;6801;53.018;11.560;2022-10-16T01:55:54;15.20;78.50
13458;DHT22;6801;53.018;11.560;2022-10-16T01:58:24;15.20;78.40
13458;DHT22;6801;53.018;11.560;2022-10-16T02:00:53;15.20;78.40
13458;DHT22;6801;53.018;11.560;2022-10-16T02:03:22;15.10;78.40
13458;DHT22;6801;53.018;11.560;2022-10-16T02:05:52;15.10;78.40
13458;DHT22;6801;53.018;11.560;2022-10-16T02:08:21;15.10;78.40
13458;DHT22;6801;53.018;11.560;2022-10-16T02:10:49;15.10;78.40
13458;DHT22;6801;53.018;11.560;2022-10-16T02:13:19;15.00;78.40
13458;DHT22;6801;53.018;11.560;2022-10-16T02:15:49;15.00;78.40
13458;DHT22;6801;53.018;11.560;2022-10-16T02:18:20;15.00;78.40
13458;DHT22;6801;53.018;11.560;2022-10-16T02:20:51;15.00;78.40
13458;DHT22;6801;53.018;11.560;2022-10-16T02:23:24;15.00;78.40
13458;DHT22;6801;53.018;11.560;2022-10-16T02:25:53;15.00;78.40
13458;DHT22;6801;53.018;11.560;2022-10-16T02:28:24;15.00;78.40
13458;DHT22;6801;53.018;11.560;2022-10-16T02:30:58;15.00;78.40
13458;DHT22;6801;53.018;11.560;2022-10-16T02:33:27;15.00;78.30
13458;DHT22;6801;53.018;11.560;2022-10-16T02:35:55;14.90;78.20
13458;DHT22;6801;53.018;11.560;2022-10-16T02:38:24;14.90;78.10
13458;DHT22;6801;53.018;11.560;2022-10-16T02:40:52;14.90;78.00
13458;DHT22;6801;53.018;11.560;2022-10-16T02:43:19;14.90;78.00
13458;DHT22;6801;53.018;11.560;2022-10-16T02:45:46;14.90;78.00
13458;DHT22;6801;53.018;11.560;2022-10-16T02:48:15;14.80;77.90
13458;DHT22;6801;53.018;11.560;2022-10-16T02:50:42;14.80;77.90
13458;DHT22;6801;53.018;11.560;2022-10-16T02:53:09;14.80;77.80
13458;DHT22;6801;53.018;11.560;2022-10-16T02:55:36;14.80;77.80
13458;DHT22;6801;53.018;11.560;2022-10-16T02:58:03;14.70;77.80
13458;DHT22;6801;53.018;11.560;2022-10-16T03:00:30;14.70;77.70
13458;DHT22;6801;53.018;11.560;2022-10-16T03:02:57;14.70;77.60
13458;DHT22;6801;53.018;11.560;2022-10-16T03:05:26;14.70;77.60
13458;DHT22;6801;53.018;11.560;2022-10-16T03:07:53;14.70;77.50
13458;DHT22;6801;53.018;11.560;2022-10-16T03:10:20;14.70;77.50
13458;DHT22;6801;53.018;11.560;2022-10-16T03:12:48;14.60;77.50
13458;DHT22;6801;53.018;11.560;2022-10-16T03:15:15;14.60;77.40
13458;DHT22;6801;53.018;11.560;2022-10-16T03:17:42;14.50;77.40
13458;DHT22;6801;53.018;11.560;2022-10-16T03:20:10;14.50;77.40
13458;DHT22;6801;53.018;11.560;2022-10-16T03:22:38;14.50;77.30
13458;DHT22;6801;53.018;11.560;2022-10-16T03:25:06;14.50;77.20
13458;DHT22;6801;53.018;11.560;2022-10-16T03:27:33;14.50;77.20
13458;DHT22;6801;53.018;11.560;2022-10-16T03:30:00;14.50;77.20
13458;DHT22;6801;53.018;11.560;2022-10-16T03:32:27;14.50;77.20
13458;DHT22;6801;53.018;11.560;2022-10-16T03:34:54;14.40;77.10
13458;DHT22;6801;53.018;11.560;2022-10-16T03:37:22;14.40;77.10
13458;DHT22;6801;53.018;11.560;2022-10-16T03:39:51;14.30;77.00
13458;DHT22;6801;53.018;11.560;2022-10-16T03:42:18;14.30;77.00
13458;DHT22;6801;53.018;11.560;2022-10-16T03:44:45;14.20;77.00
13458;DHT22;6801;53.018;11.560;2022-10-16T03:47:12;14.20;77.00
13458;DHT22;6801;53.018;11.560;2022-10-16T03:49:39;14.20;77.00
13458;DHT22;6801;53.018;11.560;2022-10-16T03:52:06;14.10;76.90
13458;DHT22;6801;53.018;11.560;2022-10-16T03:54:33;14.10;76.90
13458;DHT22;6801;53.018;11.560;2022-10-16T03:57:02;14.10;76.90
13458;DHT22;6801;53.018;11.560;2022-10-16T03:59:29;14.00;76.90
13458;DHT22;6801;53.018;11.560;2022-10-16T04:01:56;14.00;76.90
13458;DHT22;6801;53.018;11.560;2022-10-16T04:04:23;14.00;76.90
13458;DHT22;6801;53.018;11.560;2022-10-16T04:06:50;14.00;76.80
13458;DHT22;6801;53.018;11.560;2022-10-16T04:09:17;14.00;76.80
13458;DHT22;6801;53.018;11.560;2022-10-16T04:11:44;14.00;76.80
13458;DHT22;6801;53.018;11.560;2022-10-16T04:14:13;13.90;76.80
13458;DHT22;6801;53.018;11.560;2022-10-16T04:16:40;13.90;76.80
13458;DHT22;6801;53.018;11.560;2022-10-16T04:19:07;13.80;76.80
13458;DHT22;6801;53.018;11.560;2022-10-16T04:21:34;13.80;76.80
13458;DHT22;6801;53.018;11.560;2022-10-16T04:24:01;13.80;76.80
13458;DHT22;6801;53.018;11.560;2022-10-16T04:26:28;13.80;76.80
13458;DHT22;6801;53.018;11.560;2022-10-16T04:28:55;13.80;76.80
13458;DHT22;6801;53.018;11.560;2022-10-16T04:31:23;13.80;76.80
13458;DHT22;6801;53.018;11.560;2022-10-16T04:33:50;13.70;76.80
13458;DHT22;6801;53.018;11.560;2022-10-16T04:36:17;13.70;76.80
13458;DHT22;6801;53.018;11.560;2022-10-16T04:38:44;13.70;76.90
13458;DHT22;6801;53.018;11.560;2022-10-16T04:41:11;13.70;76.90
13458;DHT22;6801;53.018;11.560;2022-10-16T04:43:39;13.60;76.90
13458;DHT22;6801;53.018;11.560;2022-10-16T04:46:06;13.60;77.00
13458;DHT22;6801;53.018;11.560;2022-10-16T04:48:34;13.60;76.90
13458;DHT22;6801;53.018;11.560;2022-10-16T04:51:01;13.60;77.00
13458;DHT22;6801;53.018;11.560;2022-10-16T04:53:28;13.60;77.00
13458;DHT22;6801;53.018;11.560;2022-10-16T04:55:55;13.50;77.00
13458;DHT22;6801;53.018;11.560;2022-10-16T04:58:23;13.50;77.00
13458;DHT22;6801;53.018;11.560;2022-10-16T05:00:50;13.50;77.10
13458;DHT22;6801;53.018;11.560;2022-10-16T05:03:17;13.50;77.10
13458;DHT22;6801;53.018;11.560;2022-10-16T05:05:46;13.50;77.10
13458;DHT22;6801;53.018;11.560;2022-10-16T05:08:14;13.50;77.20
13458;DHT22;6801;53.018;11.560;2022-10-16T05:10:42;13.40;77.30
13458;DHT22;6801;53.018;11.560;2022-10-16T05:13:09;13.40;77.30
13458;DHT22;6801;53.018;11.560;2022-10-16T05:15:36;13.40;77.30
13458;DHT22;6801;53.018;11.560;2022-10-16T05:18:03;13.40;77.40
13458;DHT22;6801;53.018;11.560;2022-10-16T05:20:30;13.40;77.40
13458;DHT22;6801;53.018;11.560;2022-10-16T05:22:59;13.30;77.50
13458;DHT22;6801;53.018;11.560;2022-10-16T05:25:26;13.40;77.60
13458;DHT22;6801;53.018;11.560;2022-10-16T05:27:53;13.30;77.60
13458;DHT22;6801;53.018;11.560;2022-10-16T05:30:20;13.30;77.70
13458;DHT22;6801;53.018;11.560;2022-10-16T05:32:47;13.30;77.80
13458;DHT22;6801;53.018;11.560;2022-10-16T05:35:15;13.30;77.80
13458;DHT22;6801;53.018;11.560;2022-10-16T05:37:42;13.30;77.80
13458;DHT22;6801;53.018;11.560;2022-10-16T05:40:11;13.30;78.00
13458;DHT22;6801;53.018;11.560;2022-10-16T05:42:38;13.30;78.00
13458;DHT22;6801;53.018;11.560;2022-10-16T05:45:07;13.20;78.10
13458;DHT22;6801;53.018;11.560;2022-10-16T05:47:35;13.20;78.20
13458;DHT22;6801;53.018;11.560;2022-10-16T05:50:02;13.20;78.30
13458;DHT22;6801;53.018;11.560;2022-10-16T05:52:30;13.20;78.30
13458;DHT22;6801;53.018;11.560;2022-10-16T05:54:57;13.20;78.30
13458;DHT22;6801;53.018;11.560;2022-10-16T05:57:26;13.20;78.40
13458;DHT22;6801;53.018;11.560;2022-10-16T05:59:53;13.20;78.40
13458;DHT22;6801;53.018;11.560;2022-10-16T06:02:20;13.20;78.50
13458;DHT22;6801;53.018;11.560;2022-10-16T06:04:47;13.20;78.50
13458;DHT22;6801;53.018;11.560;2022-10-16T06:07:14;13.10;78.60
13458;DHT22;6801;53.018;11.560;2022-10-16T06:09:41;13.10;78.60
13458;DHT22;6801;53.018;11.560;2022-10-16T06:12:08;13.10;78.70
13458;DHT22;6801;53.018;11.560;2022-10-16T06:14:36;13.10;78.80
13458;DHT22;6801;53.018;11.560;2022-10-16T06:17:03;13.10;78.80
13458;DHT22;6801;53.018;11.560;2022-10-16T06:19:30;13.10;78.90
13458;DHT22;6801;53.018;11.560;2022-10-16T06:21:57;13.10;78.90
13458;DHT22;6801;53.018;11.560;2022-10-16T06:24:25;13.20;78.90
13458;DHT22;6801;53.018;11.560;2022-10-16T06:26:52;13.10;78.90
13458;DHT22;6801;53.018;11.560;2022-10-16T06:29:19;13.10;79.10
13458;DHT22;6801;53.018;11.560;2022-10-16T06:31:47;13.20;79.20
13458;DHT22;6801;53.018;11.560;2022-10-16T06:34:14;13.20;79.20
13458;DHT22;6801;53.018;11.560;2022-10-16T06:36:42;13.20;79.20
13458;DHT22;6801;53.018;11.560;2022-10-16T06:39:09;13.20;79.30
13458;DHT22;6801;53.018;11.560;2022-10-16T06:41:36;13.20;79.30
13458;DHT22;6801;53.018;11.560;2022-10-16T06:44:14;13.20;79.40
13458;DHT22;6801;53.018;11.560;2022-10-16T06:46:41;13.20;79.30
13458;DHT22;6801;53.018;11.560;2022-10-16T06:49:10;13.30;79.40
13458;DHT22;6801;53.018;11.560;2022-10-16T06:51:37;13.30;79.60
13458;DHT22;6801;53.018;11.560;2022-10-16T06:54:06;13.30;79.60
13458;DHT22;6801;53.018;11.560;2022-10-16T06:56:34;13.30;79.70
13458;DHT22;6801;53.018;11.560;2022-10-16T06:59:01;13.30;79.70
13458;DHT22;6801;53.018;11.560;2022-10-16T07:01:29;13.40;79.80
13458;DHT22;6801;53.018;11.560;2022-10-16T07:03:56;13.40;79.90
13458;DHT22;6801;53.018;11.560;2022-10-16T07:06:26;13.40;80.00
13458;DHT22;6801;53.018;11.560;2022-10-16T07:08:53;13.40;80.00
13458;DHT22;6801;53.018;11.560;2022-10-16T07:11:21;13.40;80.00
13458;DHT22;6801;53.018;11.560;2022-10-16T07:13:50;13.50;79.90
13458;DHT22;6801;53.018;11.560;2022-10-16T07:16:19;13.50;79.90
13458;DHT22;6801;53.018;11.560;2022-10-16T07:18:47;13.50;79.90
13458;DHT22;6801;53.018;11.560;2022-10-16T07:21:16;13.50;79.90
13458;DHT22;6801;53.018;11.560;2022-10-16T07:23:45;13.60;79.80
13458;DHT22;6801;53.018;11.560;2022-10-16T07:26:12;13.60;79.90
13458;DHT22;6801;53.018;11.560;2022-10-16T07:28:39;13.60;79.80
13458;DHT22;6801;53.018;11.560;2022-10-16T07:31:07;13.60;79.70
13458;DHT22;6801;53.018;11.560;2022-10-16T07:33:37;13.70;79.80
13458;DHT22;6801;53.018;11.560;2022-10-16T07:36:05;13.70;79.80
13458;DHT22;6801;53.018;11.560;2022-10-16T07:38:32;13.80;80.10
13458;DHT22;6801;53.018;11.560;2022-10-16T07:41:02;13.80;80.10
13458;DHT22;6801;53.018;11.560;2022-10-16T07:43:30;13.90;80.20
13458;DHT22;6801;53.018;11.560;2022-10-16T07:45:58;14.00;80.10
13458;DHT22;6801;53.018;11.560;2022-10-16T07:48:27;14.00;79.90
13458;DHT22;6801;53.018;11.560;2022-10-16T07:50:57;14.00;80.20
13458;DHT22;6801;53.018;11.560;2022-10-16T07:53:24;14.10;80.20
13458;DHT22;6801;53.018;11.560;2022-10-16T07:55:51;14.20;80.30
13458;DHT22;6801;53.018;11.560;2022-10-16T07:58:20;14.20;80.30
13458;DHT22;6801;53.018;11.560;2022-10-16T08:00:47;14.20;80.20
13458;DHT22;6801;53.018;11.560;2022-10-16T08:03:14;14.30;80.30
13458;DHT22;6801;53.018;11.560;2022-10-16T08:05:41;14.30;80.30
13458;DHT22;6801;53.018;11.560;2022-10-16T08:08:12;14.30;80.30
13458;DHT22;6801;53.018;11.560;2022-10-16T08:10:39;14.40;80.30
13458;DHT22;6801;53.018;11.560;2022-10-16T08:13:07;14.50;80.20
13458;DHT22;6801;53.018;11.560;2022-10-16T08:15:35;14.50;80.20
13458;DHT22;6801;53.018;11.560;2022-10-16T08:18:04;14.50;80.20
13458;DHT22;6801;53.018;11.560;2022-10-16T08:20:33;14.50;80.10
13458;DHT22;6801;53.018;11.560;2022-10-16T08:23:00;14.50;80.20
13458;DHT22;6801;53.018;11.560;2022-10-16T08:25:28;14.60;80.10
13458;DHT22;6801;53.018;11.560;2022-10-16T08:27:55;14.60;80.10
13458;DHT22;6801;53.018;11.560;2022-10-16T08:30:23;14.70;80.00
13458;DHT22;6801;53.018;11.560;2022-10-16T08:32:52;14.80;79.90
13458;DHT22;6801;53.018;11.560;2022-10-16T08:35:19;14.90;80.00
13458;DHT22;6801;53.018;11.560;2022-10-16T08:37:46;14.90;80.00
13458;DHT22;6801;53.018;11.560;2022-10-16T08:40:18;15.00;80.10
13458;DHT22;6801;53.018;11.560;2022-10-16T08:43:14;15.10;80.10
13458;DHT22;6801;53.018;11.560;2022-10-16T08:45:54;15.20;80.00
13458;DHT22;6801;53.018;11.560;2022-10-16T08:48:27;15.30;79.80
13458;DHT22;6801;53.018;11.560;2022-10-16T08:50:56;15.40;79.80
13458;DHT22;6801;53.018;11.560;2022-10-16T08:53:27;15.50;79.70
13458;DHT22;6801;53.018;11.560;2022-10-16T08:55:56;15.60;79.80
13458;DHT22;6801;53.018;11.560;2022-10-16T08:58:28;15.70;79.70
13458;DHT22;6801;53.018;11.560;2022-10-16T09:00:58;15.80;79.60
13458;DHT22;6801;53.018;11.560;2022-10-16T09:03:45;15.90;79.40
13458;DHT22;6801;53.018;11.560;2022-10-16T09:06:29;16.00;79.20
13458;DHT22;6801;53.018;11.560;2022-10-16T09:09:21;16.10;79.10
13458;DHT22;6801;53.018;11.560;2022-10-16T09:11:57;16.20;78.80
13458;DHT22;6801;53.018;11.560;2022-10-16T09:14:51;16.30;77.70
13458;DHT22;6801;53.018;11.560;2022-10-16T09:17:27;16.40;77.20
13458;DHT22;6801;53.018;11.560;2022-10-16T09:20:10;16.50;77.00
13458;DHT22;6801;53.018;11.560;2022-10-16T09:22:39;16.60;76.10
13458;DHT22;6801;53.018;11.560;2022-10-16T09:25:11;16.70;76.30
13458;DHT22;6801;53.018;11.560;2022-10-16T09:27:39;16.60;76.40
13458;DHT22;6801;53.018;11.560;2022-10-16T09:30:12;16.70;76.30
13458;DHT22;6801;53.018;11.560;2022-10-16T09:32:40;16.70;76.10
13458;DHT22;6801;53.018;11.560;2022-10-16T09:35:14;16.80;75.70
13458;DHT22;6801;53.018;11.560;2022-10-16T09:37:45;16.90;75.90
13458;DHT22;6801;53.018;11.560;2022-10-16T09:40:24;16.90;75.90
13458;DHT22;6801;53.018;11.560;2022-10-16T09:42:56;16.90;75.80
13458;DHT22;6801;53.018;11.560;2022-10-16T09:45:24;17.00;75.50
13458;DHT22;6801;53.018;11.560;2022-10-16T09:47:51;17.10;74.60
13458;DHT22;6801;53.018;11.560;2022-10-16T09:50:25;17.20;74.60
13458;DHT22;6801;53.018;11.560;2022-10-16T09:53:03;17.30;74.20
13458;DHT22;6801;53.018;11.560;2022-10-16T09:55:31;17.30;73.80
13458;DHT22;6801;53.018;11.560;2022-10-16T09:57:58;17.30;73.90
13458;DHT22;6801;53.018;11.560;2022-10-16T10:00:25;17.40;73.40
13458;DHT22;6801;53.018;11.560;2022-10-16T10:02:53;17.50;72.80
13458;DHT22;6801;53.018;11.560;2022-10-16T10:05:24;17.50;73.00
13458;DHT22;6801;53.018;11.560;2022-10-16T10:07:56;17.50;73.10
13458;DHT22;6801;53.018;11.560;2022-10-16T10:10:25;17.50;73.20
13458;DHT22;6801;53.018;11.560;2022-10-16T10:12:54;17.60;73.30
13458;DHT22;6801;53.018;11.560;2022-10-16T10:15:22;17.60;73.30
13458;DHT22;6801;53.018;11.560;2022-10-16T10:17:51;17.70;73.20
13458;DHT22;6801;53.018;11.560;2022-10-16T10:20:26;17.70;73.10
13458;DHT22;6801;53.018;11.560;2022-10-16T10:22:54;17.70;72.90
13458;DHT22;6801;53.018;11.560;2022-10-16T10:25:39;17.80;73.00
13458;DHT22;6801;53.018;11.560;2022-10-16T10:28:20;17.80;72.70
13458;DHT22;6801;53.018;11.560;2022-10-16T10:30:56;17.90;72.30
13458;DHT22;6801;53.018;11.560;2022-10-16T10:33:34;18.00;72.00
13458;DHT22;6801;53.018;11.560;2022-10-16T10:36:16;18.00;71.80
13458;DHT22;6801;53.018;11.560;2022-10-16T10:38:50;18.00;71.30
13458;DHT22;6801;53.018;11.560;2022-10-16T10:44:15;18.00;71.30
13458;DHT22;6801;53.018;11.560;2022-10-16T10:46:51;18.00;71.40
13458;DHT22;6801;53.018;11.560;2022-10-16T10:49:34;18.00;71.30
13458;DHT22;6801;53.018;11.560;2022-10-16T10:52:20;18.00;70.90
13458;DHT22;6801;53.018;11.560;2022-10-16T10:54:59;18.10;70.70
13458;DHT22;6801;53.018;11.560;2022-10-16T10:57:29;18.10;70.50
13458;DHT22;6801;53.018;11.560;2022-10-16T11:00:13;18.20;68.30
13458;DHT22;6801;53.018;11.560;2022-10-16T11:02:50;18.20;68.70
13458;DHT22;6801;53.018;11.560;2022-10-16T11:05:27;18.30;69.10
13458;DHT22;6801;53.018;11.560;2022-10-16T11:08:00;18.30;69.00
13458;DHT22;6801;53.018;11.560;2022-10-16T11:10:33;18.30;68.60
13458;DHT22;6801;53.018;11.560;2022-10-16T11:13:14;18.30;68.70
13458;DHT22;6801;53.018;11.560;2022-10-16T11:15:45;18.30;68.80
13458;DHT22;6801;53.018;11.560;2022-10-16T11:18:18;18.40;67.80
13458;DHT22;6801;53.018;11.560;2022-10-16T11:20:50;18.40;67.90
13458;DHT22;6801;53.018;11.560;2022-10-16T11:23:25;18.50;68.10
13458;DHT22;6801;53.018;11.560;2022-10-16T11:25:55;18.50;67.70
13458;DHT22;6801;53.018;11.560;2022-10-16T11:28:27;18.50;67.70
13458;DHT22;6801;53.018;11.560;2022-10-16T11:30:59;18.50;67.60
13458;DHT22;6801;53.018;11.560;2022-10-16T11:33:30;18.50;67.70
13458;DHT22;6801;53.018;11.560;2022-10-16T11:36:04;18.50;67.90
13458;DHT22;6801;53.018;11.560;2022-10-16T11:38:37;18.60;67.50
13458;DHT22;6801;53.018;11.560;2022-10-16T11:41:15;18.60;67.20
13458;DHT22;6801;53.018;11.560;2022-10-16T11:43:51;18.60;66.70
13458;DHT22;6801;53.018;11.560;2022-10-16T11:46:22;18.70;67.30
13458;DHT22;6801;53.018;11.560;2022-10-16T11:48:55;18.70;67.60
13458;DHT22;6801;53.018;11.560;2022-10-16T11:51:31;18.80;67.60
13458;DHT22;6801;53.018;11.560;2022-10-16T11:54:07;18.90;67.20
13458;DHT22;6801;53.018;11.560;2022-10-16T11:56:39;19.00;67.40
13458;DHT22;6801;53.018;11.560;2022-10-16T11:59:13;19.00;67.40
13458;DHT22;6801;53.018;11.560;2022-10-16T12:01:44;19.10;67.00
13458;DHT22;6801;53.018;11.560;2022-10-16T12:04:19;19.20;64.50
13458;DHT22;6801;53.018;11.560;2022-10-16T12:06:50;19.30;65.00
13458;DHT22;6801;53.018;11.560;2022-10-16T12:09:24;19.40;64.40
13458;DHT22;6801;53.018;11.560;2022-10-16T12:11:52;19.40;64.60
13458;DHT22;6801;53.018;11.560;2022-10-16T12:14:35;19.50;63.40
13458;DHT22;6801;53.018;11.560;2022-10-16T12:17:22;19.60;62.90
13458;DHT22;6801;53.018;11.560;2022-10-16T12:19:58;19.60;63.50
13458;DHT22;6801;53.018;11.560;2022-10-16T12:22:27;19.70;62.40
13458;DHT22;6801;53.018;11.560;2022-10-16T12:24:56;19.70;62.50
13458;DHT22;6801;53.018;11.560;2022-10-16T12:27:27;19.70;63.50
13458;DHT22;6801;53.018;11.560;2022-10-16T12:29:56;19.80;62.80
13458;DHT22;6801;53.018;11.560;2022-10-16T12:32:30;19.90;62.20
13458;DHT22;6801;53.018;11.560;2022-10-16T12:34:59;20.00;62.20
13458;DHT22;6801;53.018;11.560;2022-10-16T12:37:31;19.90;62.80
13458;DHT22;6801;53.018;11.560;2022-10-16T12:40:10;20.00;62.50
13458;DHT22;6801;53.018;11.560;2022-10-16T12:42:38;20.00;62.80
13458;DHT22;6801;53.018;11.560;2022-10-16T12:45:24;20.00;61.20
13458;DHT22;6801;53.018;11.560;2022-10-16T12:47:52;20.10;61.10
13458;DHT22;6801;53.018;11.560;2022-10-16T12:50:30;20.10;61.30
13458;DHT22;6801;53.018;11.560;2022-10-16T12:52:58;20.10;62.00
13458;DHT22;6801;53.018;11.560;2022-10-16T12:55:32;20.10;62.10
13458;DHT22;6801;53.018;11.560;2022-10-16T12:58:09;20.10;62.10
13458;DHT22;6801;53.018;11.560;2022-10-16T13:00:44;20.20;60.90
13458;DHT22;6801;53.018;11.560;2022-10-16T13:03:35;20.20;61.30
13458;DHT22;6801;53.018;11.560;2022-10-16T13:06:16;20.20;61.90
13458;DHT22;6801;53.018;11.560;2022-10-16T13:09:13;20.20;61.40
13458;DHT22;6801;53.018;11.560;2022-10-16T13:12:03;20.40;59.90
13458;DHT22;6801;53.018;11.560;2022-10-16T13:14:52;20.40;59.70
13458;DHT22;6801;53.018;11.560;2022-10-16T13:17:27;20.40;60.50
13458;DHT22;6801;53.018;11.560;2022-10-16T13:20:04;20.40;61.50
13458;DHT22;6801;53.018;11.560;2022-10-16T13:22:41;20.50;59.20
13458;DHT22;6801;53.018;11.560;2022-10-16T13:25:21;20.50;60.50
13458;DHT22;6801;53.018;11.560;2022-10-16T13:27:55;20.50;60.50
13458;DHT22;6801;53.018;11.560;2022-10-16T13:30:24;20.50;59.10
13458;DHT22;6801;53.018;11.560;2022-10-16T13:32:58;20.50;59.80
13458;DHT22;6801;53.018;11.560;2022-10-16T13:35:27;20.60;60.00
13458;DHT22;6801;53.018;11.560;2022-10-16T13:38:11;20.50;60.40
13458;DHT22;6801;53.018;11.560;2022-10-16T13:40:48;20.60;60.90
13458;DHT22;6801;53.018;11.560;2022-10-16T13:43:18;20.60;60.20
13458;DHT22;6801;53.018;11.560;2022-10-16T13:45:53;20.70;58.90
13458;DHT22;6801;53.018;11.560;2022-10-16T13:48:21;20.80;58.90
13458;DHT22;6801;53.018;11.560;2022-10-16T13:51:01;20.70;58.80
13458;DHT22;6801;53.018;11.560;2022-10-16T13:53:30;20.80;58.40
13458;DHT22;6801;53.018;11.560;2022-10-16T13:55:57;20.70;59.50
13458;DHT22;6801;53.018;11.560;2022-10-16T13:58:27;20.70;59.70
13458;DHT22;6801;53.018;11.560;2022-10-16T14:00:56;20.80;58.70
13458;DHT22;6801;53.018;11.560;2022-10-16T14:03:24;20.80;58.90
13458;DHT22;6801;53.018;11.560;2022-10-16T14:05:53;20.80;59.70
13458;DHT22;6801;53.018;11.560;2022-10-16T14:08:22;20.90;58.70
13458;DHT22;6801;53.018;11.560;2022-10-16T14:10:50;20.80;58.60
13458;DHT22;6801;53.018;11.560;2022-10-16T14:13:19;20.90;58.20
13458;DHT22;6801;53.018;11.560;2022-10-16T14:15:50;20.80;57.20
13458;DHT22;6801;53.018;11.560;2022-10-16T14:18:21;20.90;57.10
13458;DHT22;6801;53.018;11.560;2022-10-16T14:20:49;20.90;56.70
13458;DHT22;6801;53.018;11.560;2022-10-16T14:23:21;20.80;57.20
13458;DHT22;6801;53.018;11.560;2022-10-16T14:25:49;20.80;57.00
13458;DHT22;6801;53.018;11.560;2022-10-16T14:28:17;20.80;56.90
13458;DHT22;6801;53.018;11.560;2022-10-16T14:30:54;20.80;56.20
13458;DHT22;6801;53.018;11.560;2022-10-16T14:33:23;20.70;56.80
13458;DHT22;6801;53.018;11.560;2022-10-16T14:36:01;20.70;57.20
13458;DHT22;6801;53.018;11.560;2022-10-16T14:38:29;20.70;57.70
13458;DHT22;6801;53.018;11.560;2022-10-16T14:40:58;20.70;57.90
13458;DHT22;6801;53.018;11.560;2022-10-16T14:43:31;20.70;57.70
13458;DHT22;6801;53.018;11.560;2022-10-16T14:46:02;20.70;57.40
13458;DHT22;6801;53.018;11.560;2022-10-16T14:48:30;20.80;57.30
13458;DHT22;6801;53.018;11.560;2022-10-16T14:50:57;20.80;57.60
13458;DHT22;6801;53.018;11.560;2022-10-16T14:53:24;20.80;57.80
13458;DHT22;6801;53.018;11.560;2022-10-16T14:55:51;20.80;57.70
13458;DHT22;6801;53.018;11.560;2022-10-16T14:58:20;20.80;57.60
13458;DHT22;6801;53.018;11.560;2022-10-16T15:00:49;20.70;57.70
13458;DHT22;6801;53.018;11.560;2022-10-16T15:03:17;20.80;57.90
13458;DHT22;6801;53.018;11.560;2022-10-16T15:05:44;20.80;57.70
13458;DHT22;6801;53.018;11.560;2022-10-16T15:08:11;20.80;57.50
13458;DHT22;6801;53.018;11.560;2022-10-16T15:10:41;20.80;57.20
13458;DHT22;6801;53.018;11.560;2022-10-16T15:13:12;20.80;57.10
13458;DHT22;6801;53.018;11.560;2022-10-16T15:15:42;20.80;57.10
13458;DHT22;6801;53.018;11.560;2022-10-16T15:18:10;20.80;57.00
13458;DHT22;6801;53.018;11.560;2022-10-16T15:20:39;20.70;57.00
13458;DHT22;6801;53.018;11.560;2022-10-16T15:23:13;20.70;56.90
13458;DHT22;6801;53.018;11.560;2022-10-16T15:25:43;20.70;56.90
13458;DHT22;6801;53.018;11.560;2022-10-16T15:28:11;20.60;57.20
13458;DHT22;6801;53.018;11.560;2022-10-16T15:30:39;20.60;57.30
13458;DHT22;6801;53.018;11.560;2022-10-16T15:33:12;20.60;57.70
13458;DHT22;6801;53.018;11.560;2022-10-16T15:35:41;20.60;57.30
13458;DHT22;6801;53.018;11.560;2022-10-16T15:38:10;20.50;57.50
13458;DHT22;6801;53.018;11.560;2022-10-16T15:40:38;20.50;57.20
13458;DHT22;6801;53.018;11.560;2022-10-16T15:43:05;20.50;57.30
13458;DHT22;6801;53.018;11.560;2022-10-16T15:45:32;20.50;57.40
13458;DHT22;6801;53.018;11.560;2022-10-16T15:48:00;20.50;57.40
13458;DHT22;6801;53.018;11.560;2022-10-16T15:50:27;20.40;57.20
13458;DHT22;6801;53.018;11.560;2022-10-16T15:52:55;20.30;57.40